createdAt,value
2018-10-05T00:00:41.306Z,1.23
2018-10-05T00:03:09.514Z,0.87
2018-10-05T00:05:37.735Z,3.07
2018-10-05T00:08:05.938Z,1.23
2018-10-05T00:10:34.138Z,1.90
2018-10-05T00:13:02.383Z,8.70
2018-10-05T00:15:30.646Z,4.90
2018-10-05T00:17:58.862Z,1.63
2018-10-05T00:20:27.514Z,1.40
2018-10-05T00:22:55.709Z,1.70
2018-10-05T00:25:23.898Z,0.90
2018-10-05T00:27:52.582Z,1.27
2018-10-05T00:30:20.804Z,1.57
2018-10-05T00:32:48.994Z,0.47
2018-10-05T00:35:17.342Z,2.30
2018-10-05T00:37:45.617Z,1.80
2018-10-05T00:40:13.818Z,1.73
2018-10-05T00:42:42.114Z,0.30
2018-10-05T00:45:10.305Z,0.47
2018-10-05T00:47:38.611Z,0.70
2018-10-05T00:50:07.597Z,0.80
2018-10-05T00:52:35.785Z,1.47
2018-10-05T00:55:04.001Z,1.43
2018-10-05T00:57:32.688Z,2.27
2018-10-05T01:00:00.885Z,1.23
2018-10-05T01:02:29.102Z,1.60
2018-10-05T01:04:57.338Z,1.40
2018-10-05T01:07:25.616Z,1.37
2018-10-05T01:09:53.865Z,0.90
2018-10-05T01:12:22.629Z,2.00
2018-10-05T01:14:50.838Z,2.40
2018-10-05T01:17:19.050Z,4.83
2018-10-05T01:19:47.730Z,1.63
2018-10-05T01:22:15.933Z,1.73
2018-10-05T01:24:44.206Z,1.47
2018-10-05T01:27:12.833Z,1.17
2018-10-05T01:29:41.049Z,1.90
2018-10-05T01:32:09.310Z,2.10
2018-10-05T01:34:37.902Z,1.47
2018-10-05T01:37:06.114Z,0.97
2018-10-05T01:39:34.319Z,1.53
2018-10-05T01:42:03.117Z,1.50
2018-10-05T01:44:31.377Z,2.07
2018-10-05T01:46:59.581Z,4.80
2018-10-05T01:49:27.873Z,1.60
2018-10-05T01:51:56.064Z,2.90
2018-10-05T01:54:24.833Z,0.60
2018-10-05T01:56:53.058Z,1.70
2018-10-05T01:59:21.294Z,1.10
2018-10-05T02:01:49.517Z,1.93
2018-10-05T02:04:18.302Z,1.03
2018-10-05T02:06:46.517Z,1.07
2018-10-05T02:09:14.725Z,0.93
2018-10-05T02:11:44.333Z,3.30
2018-10-05T02:14:12.529Z,1.90
2018-10-05T02:16:40.730Z,1.17
2018-10-05T02:19:09.125Z,1.37
2018-10-05T02:21:37.322Z,1.53
2018-10-05T02:24:05.567Z,2.27
2018-10-05T02:26:33.850Z,2.23
2018-10-05T02:29:02.059Z,2.80
2018-10-05T02:31:30.276Z,0.77
2018-10-05T02:33:58.612Z,0.83
2018-10-05T02:36:26.825Z,1.13
2018-10-05T02:38:55.049Z,1.07
2018-10-05T02:41:23.381Z,0.87
2018-10-05T02:43:51.574Z,1.03
2018-10-05T02:46:19.777Z,2.00
2018-10-05T02:48:48.005Z,0.93
2018-10-05T02:51:16.427Z,1.50
2018-10-05T02:53:44.622Z,1.00
2018-10-05T02:56:12.955Z,2.47
2018-10-05T02:58:41.157Z,0.93
2018-10-05T03:01:20.655Z,1.00
2018-10-05T03:03:48.839Z,1.90
2018-10-05T03:06:17.043Z,1.20
2018-10-05T03:08:46.274Z,1.17
2018-10-05T03:11:14.462Z,0.33
2018-10-05T03:13:42.662Z,1.27
2018-10-05T03:16:11.286Z,6.77
2018-10-05T03:18:39.484Z,3.23
2018-10-05T03:21:07.686Z,0.87
2018-10-05T03:23:36.269Z,1.50
2018-10-05T03:26:04.473Z,3.20
2018-10-05T03:28:32.741Z,1.70
2018-10-05T03:31:01.251Z,1.23
2018-10-05T03:33:29.529Z,1.00
2018-10-05T03:35:57.711Z,1.67
2018-10-05T03:38:25.930Z,2.63
2018-10-05T03:40:54.138Z,2.60
2018-10-05T03:43:22.432Z,1.67
2018-10-05T03:45:51.216Z,2.37
2018-10-05T03:48:19.497Z,0.90
2018-10-05T03:50:47.692Z,1.37
2018-10-05T03:53:16.254Z,2.23
2018-10-05T03:55:44.448Z,2.00
2018-10-05T03:58:12.650Z,1.10
2018-10-05T04:00:41.237Z,1.70
2018-10-05T04:03:09.442Z,1.80
2018-10-05T04:05:37.637Z,3.67
2018-10-05T04:08:06.229Z,1.07
2018-10-05T04:10:34.420Z,1.57
2018-10-05T04:13:02.639Z,3.77
2018-10-05T04:15:30.972Z,0.77
2018-10-05T04:17:59.177Z,0.80
2018-10-05T04:20:27.394Z,2.17
2018-10-05T04:22:55.986Z,2.20
2018-10-05T04:25:24.183Z,1.07
2018-10-05T04:27:52.399Z,2.97
2018-10-05T04:30:20.630Z,2.00
2018-10-05T04:32:48.879Z,0.80
2018-10-05T04:35:17.133Z,1.57
2018-10-05T04:37:45.673Z,0.77
2018-10-05T04:40:13.898Z,0.93
2018-10-05T04:42:42.101Z,2.53
2018-10-05T04:45:10.593Z,0.60
2018-10-05T04:47:38.806Z,1.23
2018-10-05T04:50:07.047Z,2.10
2018-10-05T04:52:35.654Z,6.50
2018-10-05T04:55:03.985Z,0.70
2018-10-05T04:57:32.193Z,3.03
2018-10-05T05:00:00.758Z,0.60
2018-10-05T05:02:28.982Z,0.90
2018-10-05T05:04:57.190Z,0.93
2018-10-05T05:07:25.957Z,3.23
2018-10-05T05:09:54.158Z,1.73
2018-10-05T05:12:22.356Z,3.83
2018-10-05T05:14:50.574Z,1.33
2018-10-05T05:17:18.790Z,1.17
2018-10-05T05:19:47.013Z,1.00
2018-10-05T05:22:15.862Z,1.30
2018-10-05T05:24:44.126Z,1.47
2018-10-05T05:27:12.331Z,1.93
2018-10-05T05:29:40.626Z,1.67
2018-10-05T05:32:08.822Z,2.30
2018-10-05T05:34:37.026Z,0.80
2018-10-05T05:37:05.519Z,1.50
2018-10-05T05:39:33.710Z,0.80
2018-10-05T05:42:01.918Z,1.10
2018-10-05T05:44:30.171Z,1.20
2018-10-05T05:46:58.459Z,0.60
2018-10-05T05:49:26.615Z,3.30
2018-10-05T05:51:54.838Z,0.73
2018-10-05T05:54:23.062Z,2.13
2018-10-05T05:56:51.329Z,1.83
2018-10-05T05:59:20.086Z,1.13
2018-10-05T06:01:48.280Z,1.20
2018-10-05T06:04:16.521Z,1.83
2018-10-05T06:06:45.771Z,2.63
2018-10-05T06:09:14.014Z,2.47
2018-10-05T06:11:42.220Z,2.10
2018-10-05T06:14:10.814Z,1.30
2018-10-05T06:16:39.010Z,1.43
2018-10-05T06:19:07.209Z,1.00
2018-10-05T06:21:35.832Z,1.03
2018-10-05T06:24:03.978Z,2.00
2018-10-05T06:26:32.169Z,0.67
2018-10-05T06:29:00.701Z,0.67
2018-10-05T06:31:28.937Z,0.87
2018-10-05T06:33:57.128Z,1.13
2018-10-05T06:36:25.839Z,1.27
2018-10-05T06:38:54.063Z,1.80
2018-10-05T06:41:22.269Z,1.90
2018-10-05T06:43:50.546Z,0.40
2018-10-05T06:46:18.746Z,3.37
2018-10-05T06:48:47.107Z,0.53
2018-10-05T06:51:15.947Z,0.67
2018-10-05T06:53:44.444Z,0.90
2018-10-05T06:56:13.638Z,1.20
2018-10-05T06:58:42.224Z,0.77
2018-10-05T07:01:10.417Z,1.27
2018-10-05T07:03:38.609Z,1.63
2018-10-05T07:06:07.486Z,1.60
2018-10-05T07:08:35.695Z,1.50
2018-10-05T07:11:04.133Z,2.77
2018-10-05T07:13:32.655Z,1.00
2018-10-05T07:16:00.862Z,0.50
2018-10-05T07:18:30.263Z,1.73
2018-10-05T07:20:59.030Z,1.67
2018-10-05T07:23:27.238Z,0.80
2018-10-05T07:25:55.446Z,5.10
2018-10-05T07:28:23.808Z,1.03
2018-10-05T07:30:53.498Z,4.90
2018-10-05T07:33:22.289Z,1.43
2018-10-05T07:35:51.114Z,0.70
2018-10-05T07:38:19.346Z,4.47
2018-10-05T07:40:47.557Z,1.33
2018-10-05T07:43:17.015Z,1.07
2018-10-05T07:45:45.226Z,0.30
2018-10-05T07:48:13.443Z,0.67
2018-10-05T07:50:41.789Z,0.73
2018-10-05T07:53:09.985Z,1.20
2018-10-05T07:55:38.198Z,1.10
2018-10-05T07:58:06.440Z,2.70
2018-10-05T08:00:35.165Z,1.70
2018-10-05T08:03:03.396Z,1.03
2018-10-05T08:05:32.188Z,0.50
2018-10-05T08:08:00.386Z,3.00
2018-10-05T08:10:29.542Z,1.33
2018-10-05T08:12:57.799Z,0.57
2018-10-05T08:15:26.022Z,1.20
2018-10-05T08:17:54.246Z,0.83
2018-10-05T08:20:23.469Z,0.20
2018-10-05T08:22:51.719Z,2.33
2018-10-05T08:25:19.914Z,2.33
2018-10-05T08:27:48.213Z,1.50
2018-10-05T08:30:16.442Z,1.13
2018-10-05T08:32:44.738Z,1.90
2018-10-05T08:35:13.446Z,0.90
2018-10-05T08:37:41.650Z,0.50
2018-10-05T08:40:10.397Z,1.00
2018-10-05T08:42:39.131Z,0.70
2018-10-05T08:45:07.705Z,1.83
2018-10-05T08:47:35.906Z,2.77
2018-10-05T08:50:04.125Z,0.77
2018-10-05T08:52:32.770Z,0.70
2018-10-05T08:55:01.019Z,1.77
2018-10-05T08:57:29.363Z,1.10
2018-10-05T08:59:57.635Z,1.10
2018-10-05T09:02:25.885Z,1.97
2018-10-05T09:04:54.409Z,2.90
2018-10-05T09:07:22.609Z,1.03
2018-10-05T09:09:50.830Z,1.27
2018-10-05T09:12:19.522Z,1.20
2018-10-05T09:14:47.716Z,1.00
2018-10-05T09:17:15.927Z,0.50
2018-10-05T09:19:44.489Z,2.57
2018-10-05T09:22:12.693Z,2.63
2018-10-05T09:24:40.898Z,0.70
2018-10-05T09:27:09.714Z,1.73
2018-10-05T09:29:37.913Z,1.70
2018-10-05T09:32:06.117Z,1.67
2018-10-05T09:34:35.158Z,1.80
2018-10-05T09:37:03.354Z,1.73
2018-10-05T09:39:31.588Z,1.63
2018-10-05T09:42:00.099Z,1.17
2018-10-05T09:44:28.375Z,1.77
2018-10-05T09:46:56.590Z,1.53
2018-10-05T09:49:25.962Z,3.53
2018-10-05T09:51:54.203Z,2.20
2018-10-05T09:54:22.509Z,1.27
2018-10-05T09:56:52.113Z,1.03
2018-10-05T09:59:20.338Z,1.63
2018-10-05T10:01:52.250Z,1.53
2018-10-05T10:04:20.585Z,1.53
2018-10-05T10:06:48.786Z,0.67
2018-10-05T10:09:17.106Z,5.40
2018-10-05T10:11:45.306Z,1.20
2018-10-05T10:14:13.513Z,1.70
2018-10-05T10:16:42.218Z,3.10
2018-10-05T10:19:10.423Z,1.40
2018-10-05T10:21:38.613Z,1.17
2018-10-05T10:24:07.355Z,1.53
2018-10-05T10:26:35.593Z,1.43
2018-10-05T10:29:03.866Z,1.33
2018-10-05T10:31:32.017Z,1.87
2018-10-05T10:34:00.223Z,2.43
2018-10-05T10:36:28.735Z,1.10
2018-10-05T10:38:57.034Z,2.30
2018-10-05T10:41:25.280Z,1.83
2018-10-05T10:43:53.517Z,0.63
2018-10-05T10:46:21.818Z,2.30
2018-10-05T10:48:50.046Z,2.07
2018-10-05T10:51:18.265Z,1.70
2018-10-05T10:53:46.586Z,3.27
2018-10-05T10:56:14.833Z,4.23
2018-10-05T10:58:43.460Z,0.93
2018-10-05T11:01:12.121Z,1.67
2018-10-05T11:03:40.298Z,0.97
2018-10-05T11:06:08.573Z,6.90
2018-10-05T11:08:36.906Z,2.00
2018-10-05T11:11:05.157Z,2.17
2018-10-05T11:13:33.336Z,1.63
2018-10-05T11:16:01.553Z,1.90
2018-10-05T11:18:29.763Z,1.47
2018-10-05T11:20:57.971Z,1.00
2018-10-05T11:23:26.390Z,1.67
2018-10-05T11:25:54.645Z,1.70
2018-10-05T11:28:22.977Z,2.33
2018-10-05T11:30:51.121Z,1.10
2018-10-05T11:33:19.310Z,2.30
2018-10-05T11:35:47.497Z,0.97
2018-10-05T11:38:16.021Z,1.40
2018-10-05T11:40:44.289Z,2.40
2018-10-05T11:43:12.529Z,4.83
2018-10-05T11:45:41.054Z,1.93
2018-10-05T11:48:09.262Z,1.00
2018-10-05T11:50:37.467Z,2.80
2018-10-05T11:53:06.067Z,3.20
2018-10-05T11:55:34.283Z,0.93
2018-10-05T11:58:02.495Z,1.53
2018-10-05T12:00:31.692Z,1.60
2018-10-05T12:02:59.909Z,1.83
2018-10-05T12:05:28.369Z,1.20
2018-10-05T12:07:57.129Z,0.57
2018-10-05T12:10:25.336Z,2.20
2018-10-05T12:12:53.557Z,0.73
2018-10-05T12:15:21.873Z,0.60
2018-10-05T12:17:50.272Z,1.50
2018-10-05T12:20:18.505Z,1.23
2018-10-05T12:22:46.934Z,3.60
2018-10-05T12:25:15.153Z,1.87
2018-10-05T12:27:43.373Z,4.10
2018-10-05T12:30:11.973Z,0.77
2018-10-05T12:32:40.158Z,1.67
2018-10-05T12:35:08.374Z,0.60
2018-10-05T12:37:36.594Z,0.80
2018-10-05T12:40:04.834Z,0.93
2018-10-05T12:42:33.038Z,1.40
2018-10-05T12:45:01.706Z,0.70
2018-10-05T12:47:29.957Z,0.50
2018-10-05T12:49:58.197Z,0.87
2018-10-05T12:52:26.515Z,0.73
2018-10-05T12:54:54.757Z,1.83
2018-10-05T12:57:22.966Z,1.20
2018-10-05T12:59:51.207Z,1.70
2018-10-05T13:02:19.414Z,1.27
2018-10-05T13:04:47.682Z,1.40
2018-10-05T13:07:16.406Z,1.57
2018-10-05T13:09:44.702Z,0.83
2018-10-05T13:12:12.903Z,0.70
2018-10-05T13:14:41.526Z,1.43
2018-10-05T13:17:09.752Z,1.13
2018-10-05T13:19:37.941Z,1.37
2018-10-05T13:22:06.226Z,2.17
2018-10-05T13:24:34.448Z,1.90
2018-10-05T13:27:02.710Z,0.70
2018-10-05T13:29:31.525Z,1.10
2018-10-05T13:31:59.804Z,0.57
2018-10-05T13:34:28.008Z,1.40
2018-10-05T13:36:56.546Z,1.60
2018-10-05T13:39:24.741Z,1.03
2018-10-05T13:41:52.994Z,0.50
2018-10-05T13:44:21.487Z,0.50
2018-10-05T13:46:49.710Z,4.07
2018-10-05T13:49:18.452Z,1.17
2018-10-05T13:51:46.664Z,1.00
2018-10-05T13:54:14.859Z,1.47
2018-10-05T13:56:43.082Z,0.57
2018-10-05T13:59:11.330Z,1.57
2018-10-05T14:01:39.532Z,0.60
2018-10-05T14:04:07.738Z,0.40
2018-10-05T14:06:35.986Z,0.80
2018-10-05T14:09:07.166Z,0.30
2018-10-05T14:11:35.494Z,5.30
2018-10-05T14:14:04.054Z,0.87
2018-10-05T14:16:32.261Z,0.50
2018-10-05T14:19:00.864Z,0.80
2018-10-05T14:21:29.087Z,1.10
2018-10-05T14:23:57.316Z,0.80
2018-10-05T14:26:25.586Z,1.67
2018-10-05T14:28:53.814Z,0.50
2018-10-05T14:31:22.018Z,2.27
2018-10-05T14:33:50.388Z,3.50
2018-10-05T14:36:18.561Z,3.30
2018-10-05T14:38:46.765Z,1.53
2018-10-05T14:41:15.382Z,0.60
2018-10-05T14:43:43.592Z,0.93
2018-10-05T14:46:11.801Z,2.63
2018-10-05T14:48:40.026Z,6.93
2018-10-05T14:51:08.246Z,0.33
2018-10-05T14:53:36.463Z,2.17
2018-10-05T14:56:04.798Z,0.27
2018-10-05T14:58:33.265Z,0.67
2018-10-05T15:01:01.558Z,0.60
2018-10-05T15:03:30.621Z,1.10
2018-10-05T15:05:58.823Z,5.40
2018-10-05T15:08:27.066Z,0.70
2018-10-05T15:10:55.378Z,0.23
2018-10-05T15:13:23.659Z,0.43
2018-10-05T15:15:51.858Z,0.53
2018-10-05T15:18:20.122Z,0.73
2018-10-05T15:20:48.334Z,1.05
2018-10-05T15:23:16.539Z,0.97
2018-10-05T15:25:44.771Z,0.40
2018-10-05T15:28:12.969Z,0.40
2018-10-05T15:30:41.193Z,1.47
2018-10-05T15:33:09.690Z,0.80
2018-10-05T15:35:37.893Z,0.20
2018-10-05T15:38:06.222Z,0.50
2018-10-05T15:40:34.757Z,0.33
2018-10-05T15:43:03.545Z,0.30
2018-10-05T15:45:31.746Z,1.33
2018-10-05T15:47:59.958Z,0.50
2018-10-05T15:50:28.998Z,0.97
2018-10-05T15:52:57.257Z,1.50
2018-10-05T15:55:27.018Z,0.67
2018-10-05T15:57:56.337Z,1.90
2018-10-05T16:00:30.909Z,0.50
2018-10-05T16:03:01.649Z,5.03
2018-10-05T16:05:29.895Z,0.53
2018-10-05T16:07:59.543Z,20.17
2018-10-05T16:10:27.778Z,1.27
2018-10-05T16:12:56.064Z,1.30
2018-10-05T16:15:25.310Z,1.30
2018-10-05T16:17:53.542Z,12.03
2018-10-05T16:20:21.758Z,3.57
2018-10-05T16:22:50.337Z,4.10
2018-10-05T16:25:18.546Z,2.43
2018-10-05T16:27:46.750Z,7.80
2018-10-05T16:30:15.054Z,2.63
2018-10-05T16:32:43.268Z,1.50
2018-10-05T16:35:11.528Z,1.80
2018-10-05T16:37:40.249Z,1.20
2018-10-05T16:40:08.465Z,2.40
2018-10-05T16:42:36.749Z,1.93
2018-10-05T16:45:05.473Z,2.60
2018-10-05T16:47:33.767Z,1.93
2018-10-05T16:50:02.108Z,29.83
2018-10-05T16:52:30.310Z,2.97
2018-10-05T16:54:58.793Z,10.73
2018-10-05T16:57:27.142Z,35.50
2018-10-05T16:59:55.678Z,40.67
2018-10-05T17:02:23.903Z,34.70
2018-10-05T17:04:52.133Z,22.00
2018-10-05T17:07:20.717Z,24.43
2018-10-05T17:09:48.919Z,17.30
2018-10-05T17:12:19.280Z,11.37
2018-10-05T17:14:47.878Z,13.83
2018-10-05T17:17:16.200Z,17.80
2018-10-05T17:19:44.398Z,16.43
2018-10-05T17:22:13.024Z,13.23
2018-10-05T17:24:41.197Z,7.87
2018-10-05T17:27:09.521Z,21.07
2018-10-05T17:29:37.958Z,15.23
2018-10-05T17:32:06.169Z,8.43
2018-10-05T17:34:34.373Z,7.80
2018-10-05T17:37:02.633Z,3.47
2018-10-05T17:39:30.843Z,20.83
2018-10-05T17:41:59.042Z,2.17
2018-10-05T17:44:27.605Z,0.70
2018-10-05T17:46:55.815Z,2.00
2018-10-05T17:49:24.030Z,1.70
2018-10-05T17:51:52.249Z,1.20
2018-10-05T17:54:20.449Z,1.50
2018-10-05T17:56:48.676Z,14.60
2018-10-05T17:59:17.656Z,2.13
2018-10-05T18:01:45.908Z,3.30
2018-10-05T18:04:14.104Z,2.10
2018-10-05T18:06:42.353Z,0.83
2018-10-05T18:09:10.559Z,1.00
2018-10-05T18:11:38.760Z,0.93
2018-10-05T18:14:07.714Z,0.90
2018-10-05T18:16:35.916Z,0.53
2018-10-05T18:19:04.191Z,1.43
2018-10-05T18:21:32.682Z,0.60
2018-10-05T18:24:00.966Z,0.50
2018-10-05T18:26:29.234Z,1.53
2018-10-05T18:28:57.463Z,1.97
2018-10-05T18:31:25.924Z,2.17
2018-10-05T18:33:54.137Z,0.20
2018-10-05T18:36:22.770Z,0.50
2018-10-05T18:38:50.965Z,1.27
2018-10-05T18:41:19.216Z,1.33
2018-10-05T18:43:47.402Z,1.10
2018-10-05T18:46:15.678Z,0.60
2018-10-05T18:48:43.884Z,0.53
2018-10-05T18:51:12.528Z,1.00
2018-10-05T18:53:40.722Z,0.40
2018-10-05T18:56:20.293Z,1.73
2018-10-05T18:58:48.566Z,3.17
2018-10-05T19:01:16.787Z,5.33
2018-10-05T19:03:45.978Z,3.07
2018-10-05T19:06:14.370Z,1.40
2018-10-05T19:08:42.793Z,1.63
2018-10-05T19:11:11.502Z,1.47
2018-10-05T19:13:39.791Z,1.43
2018-10-05T19:16:09.063Z,1.07
2018-10-05T19:18:37.541Z,0.87
2018-10-05T19:21:05.851Z,4.30
2018-10-05T19:23:34.079Z,1.70
2018-10-05T19:26:02.758Z,2.10
2018-10-05T19:28:30.933Z,1.37
2018-10-05T19:30:59.158Z,0.50
2018-10-05T19:33:28.013Z,2.33
2018-10-05T19:35:56.287Z,1.03
2018-10-05T19:38:24.520Z,2.60
2018-10-05T19:40:52.762Z,1.30
2018-10-05T19:43:20.977Z,1.77
2018-10-05T19:45:49.181Z,1.00
2018-10-05T19:48:17.490Z,0.83
2018-10-05T19:50:45.705Z,0.50
2018-10-05T19:53:14.019Z,1.43
2018-10-05T19:55:42.751Z,1.93
2018-10-05T19:58:10.954Z,2.97
2018-10-05T20:00:39.148Z,1.43
2018-10-05T20:03:07.798Z,1.50
2018-10-05T20:05:35.998Z,0.70
2018-10-05T20:08:04.213Z,1.00
2018-10-05T20:10:32.722Z,0.50
2018-10-05T20:13:00.917Z,0.40
2018-10-05T20:15:29.122Z,1.00
2018-10-05T20:17:57.521Z,1.20
2018-10-05T20:20:25.558Z,0.43
2018-10-05T20:22:53.839Z,0.40
2018-10-05T20:25:22.057Z,0.70
2018-10-05T20:27:50.275Z,1.37
2018-10-05T20:30:18.494Z,0.67
2018-10-05T20:32:47.101Z,1.90
2018-10-05T20:35:15.294Z,0.60
2018-10-05T20:37:43.764Z,1.73
2018-10-05T20:40:12.246Z,4.27
2018-10-05T20:42:40.478Z,1.80
2018-10-05T20:45:08.681Z,0.60
2018-10-05T20:47:37.118Z,0.83
2018-10-05T20:50:05.346Z,1.70
2018-10-05T20:52:33.553Z,1.77
2018-10-05T20:55:02.259Z,1.87
2018-10-05T20:57:30.466Z,1.50
2018-10-05T20:59:58.742Z,2.27
2018-10-05T21:02:27.037Z,0.77
2018-10-05T21:04:55.314Z,1.03
2018-10-05T21:07:23.526Z,0.90
2018-10-05T21:09:52.637Z,1.33
2018-10-05T21:12:21.230Z,1.07
2018-10-05T21:14:49.542Z,1.77
2018-10-05T21:17:17.854Z,0.90
2018-10-05T21:19:46.054Z,3.37
2018-10-05T21:22:14.270Z,1.37
2018-10-05T21:24:43.107Z,1.17
2018-10-05T21:27:11.304Z,1.00
2018-10-05T21:29:39.518Z,1.23
2018-10-05T21:32:07.761Z,1.43
2018-10-05T21:34:35.961Z,1.20
2018-10-05T21:37:04.195Z,1.30
2018-10-05T21:39:32.722Z,3.53
2018-10-05T21:42:00.925Z,0.57
2018-10-05T21:44:29.141Z,0.97
2018-10-05T21:46:57.443Z,2.53
2018-10-05T21:49:25.662Z,0.80
2018-10-05T21:51:53.907Z,2.07
2018-10-05T21:54:22.150Z,0.57
2018-10-05T21:56:50.362Z,0.70
2018-10-05T21:59:18.614Z,0.57
2018-10-05T22:01:47.524Z,1.43
2018-10-05T22:04:15.734Z,1.00
2018-10-05T22:06:43.946Z,2.80
2018-10-05T22:09:13.516Z,1.57
2018-10-05T22:11:41.718Z,1.20
2018-10-05T22:14:09.914Z,0.80
2018-10-05T22:16:38.236Z,1.53
2018-10-05T22:19:06.674Z,0.70
2018-10-05T22:21:34.910Z,3.07
2018-10-05T22:24:03.153Z,1.63
2018-10-05T22:26:31.445Z,1.83
2018-10-05T22:28:59.684Z,1.50
2018-10-05T22:31:28.402Z,0.90
2018-10-05T22:33:56.923Z,2.07
2018-10-05T22:36:25.239Z,0.70
2018-10-05T22:38:53.579Z,1.17
2018-10-05T22:41:21.803Z,0.77
2018-10-05T22:43:50.340Z,2.57
2018-10-05T22:46:19.137Z,1.63
2018-10-05T22:48:47.381Z,0.50
2018-10-05T22:51:15.647Z,4.60
2018-10-05T22:53:44.269Z,2.40
2018-10-05T22:56:12.506Z,1.00
2018-10-05T22:58:40.753Z,5.03
2018-10-05T23:01:09.014Z,1.42
2018-10-05T23:03:37.219Z,3.40
2018-10-05T23:06:05.460Z,1.60
2018-10-05T23:08:33.837Z,1.50
2018-10-05T23:11:02.066Z,4.03
2018-10-05T23:13:30.317Z,0.80
2018-10-05T23:15:58.546Z,1.80
2018-10-05T23:18:26.742Z,0.80
2018-10-05T23:20:54.960Z,1.40
2018-10-05T23:23:23.737Z,2.63
2018-10-05T23:25:51.958Z,0.60
2018-10-05T23:28:20.637Z,1.37
2018-10-05T23:30:49.102Z,1.93
2018-10-05T23:33:17.366Z,2.27
2018-10-05T23:35:45.614Z,2.70
2018-10-05T23:38:13.833Z,1.10
2018-10-05T23:40:42.048Z,0.93
2018-10-05T23:43:10.266Z,1.30
2018-10-05T23:45:38.490Z,1.90
2018-10-05T23:48:06.709Z,7.83
2018-10-05T23:50:34.969Z,1.20
2018-10-05T23:53:03.674Z,0.30
2018-10-05T23:55:32.070Z,0.63
2018-10-05T23:58:00.284Z,0.83
